Nearby METAR Reports

 

KTOP - Billard Municipal Airport, Topeka, Kansas, USA
Updated: 03/31/2020 10:53pm
Few Clouds
Few Clouds
 Wind from SSW
Wind: SSW 6 mph , 9 km/h
Temperature: 57°F , 14°C
Dew Point: 43°F , 6°C
Humidity: 59%
Barometer: 1014.2 hPa
Clouds: Few Clouds
Visibility: 7 miles , 11 km
Cloud details: Few Clouds 5500 ft
2020/04/01 03:53 KTOP 010353Z AUTO 21005KT 7SM FEW055 14/06 A2995 RMK AO2 SLP139 T01440056
KFOE - Forbes Field Airport, Topeka, Kansas, USA
Updated: 03/31/2020 10:53pm
Clear
Clear
 Wind from SSW
Wind: SSW 7 mph , 11 km/h
Temperature: 54°F , 12°C
Dew Point: 43°F , 6°C
Humidity: 67%
Barometer: 1014.6 hPa
Clouds: Clear
Visibility: 8 miles , 13 km
2020/04/01 03:53 KFOE 010353Z AUTO 21006KT 8SM CLR 12/06 A2996 RMK AO2 SLP141 T01220056